sensor_id;sensor_type;location;lat;lon;timestamp;P1;durP1;ratioP1;P2;durP2;ratioP2
27642;SDS011;15053;48.618;10.024;2024-01-30T00:00:34;26.98;;;15.60;;
27642;SDS011;15053;48.618;10.024;2024-01-30T00:03:01;25.65;;;15.15;;
27642;SDS011;15053;48.618;10.024;2024-01-30T00:05:27;25.48;;;15.40;;
27642;SDS011;15053;48.618;10.024;2024-01-30T00:07:54;23.95;;;14.75;;
27642;SDS011;15053;48.618;10.024;2024-01-30T00:10:21;30.45;;;15.50;;
27642;SDS011;15053;48.618;10.024;2024-01-30T00:12:47;25.45;;;14.25;;
27642;SDS011;15053;48.618;10.024;2024-01-30T00:15:14;23.15;;;13.85;;
27642;SDS011;15053;48.618;10.024;2024-01-30T00:17:41;23.63;;;14.27;;
27642;SDS011;15053;48.618;10.024;2024-01-30T00:20:07;25.33;;;13.63;;
27642;SDS011;15053;48.618;10.024;2024-01-30T00:22:36;22.27;;;12.93;;
27642;SDS011;15053;48.618;10.024;2024-01-30T00:25:02;20.60;;;12.82;;
27642;SDS011;15053;48.618;10.024;2024-01-30T00:27:29;21.92;;;12.13;;
27642;SDS011;15053;48.618;10.024;2024-01-30T00:29:56;24.63;;;13.07;;
27642;SDS011;15053;48.618;10.024;2024-01-30T00:32:22;22.88;;;12.52;;
27642;SDS011;15053;48.618;10.024;2024-01-30T00:34:49;20.33;;;11.55;;
27642;SDS011;15053;48.618;10.024;2024-01-30T00:37:16;18.70;;;11.20;;
27642;SDS011;15053;48.618;10.024;2024-01-30T00:39:43;19.20;;;11.75;;
27642;SDS011;15053;48.618;10.024;2024-01-30T00:42:10;17.77;;;11.02;;
27642;SDS011;15053;48.618;10.024;2024-01-30T00:44:36;17.98;;;11.32;;
27642;SDS011;15053;48.618;10.024;2024-01-30T00:47:06;22.58;;;12.32;;
27642;SDS011;15053;48.618;10.024;2024-01-30T00:49:32;18.83;;;11.90;;
27642;SDS011;15053;48.618;10.024;2024-01-30T00:52:00;18.05;;;11.50;;
27642;SDS011;15053;48.618;10.024;2024-01-30T00:54:27;17.30;;;11.07;;
27642;SDS011;15053;48.618;10.024;2024-01-30T00:56:53;20.45;;;12.32;;
27642;SDS011;15053;48.618;10.024;2024-01-30T00:59:20;17.23;;;11.77;;
27642;SDS011;15053;48.618;10.024;2024-01-30T01:01:46;17.52;;;11.27;;
27642;SDS011;15053;48.618;10.024;2024-01-30T01:04:13;20.85;;;10.82;;
27642;SDS011;15053;48.618;10.024;2024-01-30T01:06:40;19.65;;;11.82;;
27642;SDS011;15053;48.618;10.024;2024-01-30T01:09:11;19.27;;;10.95;;
27642;SDS011;15053;48.618;10.024;2024-01-30T01:11:38;19.00;;;11.10;;
27642;SDS011;15053;48.618;10.024;2024-01-30T01:14:05;21.55;;;11.43;;
27642;SDS011;15053;48.618;10.024;2024-01-30T01:16:31;17.75;;;10.82;;
27642;SDS011;15053;48.618;10.024;2024-01-30T01:18:58;17.15;;;10.98;;
27642;SDS011;15053;48.618;10.024;2024-01-30T01:21:26;18.90;;;11.63;;
27642;SDS011;15053;48.618;10.024;2024-01-30T01:23:53;17.30;;;10.20;;
27642;SDS011;15053;48.618;10.024;2024-01-30T01:26:20;17.88;;;10.55;;
27642;SDS011;15053;48.618;10.024;2024-01-30T01:28:47;19.33;;;11.63;;
27642;SDS011;15053;48.618;10.024;2024-01-30T01:31:14;17.95;;;10.70;;
27642;SDS011;15053;48.618;10.024;2024-01-30T01:33:41;19.70;;;10.77;;
27642;SDS011;15053;48.618;10.024;2024-01-30T01:36:08;17.00;;;9.90;;
27642;SDS011;15053;48.618;10.024;2024-01-30T01:38:35;16.08;;;10.20;;
27642;SDS011;15053;48.618;10.024;2024-01-30T01:41:01;16.88;;;10.55;;
27642;SDS011;15053;48.618;10.024;2024-01-30T01:43:28;19.33;;;11.65;;
27642;SDS011;15053;48.618;10.024;2024-01-30T01:45:56;18.60;;;10.82;;
27642;SDS011;15053;48.618;10.024;2024-01-30T01:48:23;18.95;;;11.32;;
27642;SDS011;15053;48.618;10.024;2024-01-30T01:50:50;17.45;;;10.50;;
27642;SDS011;15053;48.618;10.024;2024-01-30T01:53:18;19.40;;;10.25;;
27642;SDS011;15053;48.618;10.024;2024-01-30T01:55:45;18.50;;;10.35;;
27642;SDS011;15053;48.618;10.024;2024-01-30T01:58:12;20.75;;;10.65;;
27642;SDS011;15053;48.618;10.024;2024-01-30T02:00:39;17.60;;;10.77;;
27642;SDS011;15053;48.618;10.024;2024-01-30T02:03:09;15.10;;;10.02;;
27642;SDS011;15053;48.618;10.024;2024-01-30T02:05:38;14.77;;;10.32;;
27642;SDS011;15053;48.618;10.024;2024-01-30T02:08:05;16.73;;;10.50;;
27642;SDS011;15053;48.618;10.024;2024-01-30T02:10:32;18.40;;;11.10;;
27642;SDS011;15053;48.618;10.024;2024-01-30T02:12:58;16.88;;;10.45;;
27642;SDS011;15053;48.618;10.024;2024-01-30T02:15:25;18.20;;;11.13;;
27642;SDS011;15053;48.618;10.024;2024-01-30T02:17:51;17.23;;;11.23;;
27642;SDS011;15053;48.618;10.024;2024-01-30T02:20:18;19.40;;;11.63;;
27642;SDS011;15053;48.618;10.024;2024-01-30T02:22:45;21.92;;;12.60;;
27642;SDS011;15053;48.618;10.024;2024-01-30T02:25:13;19.88;;;12.82;;
27642;SDS011;15053;48.618;10.024;2024-01-30T02:27:39;23.30;;;13.18;;
27642;SDS011;15053;48.618;10.024;2024-01-30T02:30:06;24.65;;;13.25;;
27642;SDS011;15053;48.618;10.024;2024-01-30T02:32:33;24.90;;;13.98;;
27642;SDS011;15053;48.618;10.024;2024-01-30T02:35:00;27.13;;;12.88;;
27642;SDS011;15053;48.618;10.024;2024-01-30T02:37:27;25.67;;;14.68;;
27642;SDS011;15053;48.618;10.024;2024-01-30T02:39:53;22.70;;;13.65;;
27642;SDS011;15053;48.618;10.024;2024-01-30T02:42:26;22.92;;;13.70;;
27642;SDS011;15053;48.618;10.024;2024-01-30T02:44:53;23.77;;;13.85;;
27642;SDS011;15053;48.618;10.024;2024-01-30T02:47:20;22.05;;;12.93;;
27642;SDS011;15053;48.618;10.024;2024-01-30T02:49:46;22.00;;;12.25;;
27642;SDS011;15053;48.618;10.024;2024-01-30T02:52:13;23.67;;;13.00;;
27642;SDS011;15053;48.618;10.024;2024-01-30T02:54:39;23.55;;;12.23;;
27642;SDS011;15053;48.618;10.024;2024-01-30T02:57:06;20.00;;;12.57;;
27642;SDS011;15053;48.618;10.024;2024-01-30T02:59:32;23.58;;;12.55;;
27642;SDS011;15053;48.618;10.024;2024-01-30T03:02:02;22.00;;;12.50;;
27642;SDS011;15053;48.618;10.024;2024-01-30T03:04:28;26.65;;;10.95;;
27642;SDS011;15053;48.618;10.024;2024-01-30T03:06:56;17.85;;;10.88;;
27642;SDS011;15053;48.618;10.024;2024-01-30T03:09:23;24.95;;;11.18;;
27642;SDS011;15053;48.618;10.024;2024-01-30T03:11:49;17.40;;;10.85;;
27642;SDS011;15053;48.618;10.024;2024-01-30T03:14:16;21.55;;;11.02;;
27642;SDS011;15053;48.618;10.024;2024-01-30T03:16:43;17.58;;;10.88;;
27642;SDS011;15053;48.618;10.024;2024-01-30T03:19:09;20.73;;;11.30;;
27642;SDS011;15053;48.618;10.024;2024-01-30T03:21:36;16.90;;;10.38;;
27642;SDS011;15053;48.618;10.024;2024-01-30T03:24:03;17.70;;;11.00;;
27642;SDS011;15053;48.618;10.024;2024-01-30T03:26:30;17.38;;;11.15;;
27642;SDS011;15053;48.618;10.024;2024-01-30T03:28:57;20.52;;;12.05;;
27642;SDS011;15053;48.618;10.024;2024-01-30T03:31:23;17.77;;;10.23;;
27642;SDS011;15053;48.618;10.024;2024-01-30T03:33:50;19.13;;;10.90;;
27642;SDS011;15053;48.618;10.024;2024-01-30T03:36:17;21.02;;;11.80;;
27642;SDS011;15053;48.618;10.024;2024-01-30T03:38:43;23.73;;;12.40;;
27642;SDS011;15053;48.618;10.024;2024-01-30T03:41:10;18.02;;;11.85;;
27642;SDS011;15053;48.618;10.024;2024-01-30T03:43:36;27.10;;;14.05;;
27642;SDS011;15053;48.618;10.024;2024-01-30T03:46:03;28.75;;;13.02;;
27642;SDS011;15053;48.618;10.024;2024-01-30T03:48:30;21.85;;;12.90;;
27642;SDS011;15053;48.618;10.024;2024-01-30T03:50:57;24.52;;;13.35;;
27642;SDS011;15053;48.618;10.024;2024-01-30T03:53:23;22.10;;;13.52;;
27642;SDS011;15053;48.618;10.024;2024-01-30T03:55:50;24.65;;;14.10;;
27642;SDS011;15053;48.618;10.024;2024-01-30T03:58:16;24.05;;;14.65;;
27642;SDS011;15053;48.618;10.024;2024-01-30T04:00:43;24.25;;;14.25;;
27642;SDS011;15053;48.618;10.024;2024-01-30T04:03:11;25.98;;;14.95;;
27642;SDS011;15053;48.618;10.024;2024-01-30T04:05:37;23.40;;;14.23;;
27642;SDS011;15053;48.618;10.024;2024-01-30T04:08:04;21.25;;;14.45;;
27642;SDS011;15053;48.618;10.024;2024-01-30T04:10:31;22.88;;;14.52;;
27642;SDS011;15053;48.618;10.024;2024-01-30T04:12:57;27.58;;;15.07;;
27642;SDS011;15053;48.618;10.024;2024-01-30T04:15:24;23.83;;;14.45;;
27642;SDS011;15053;48.618;10.024;2024-01-30T04:17:51;27.65;;;17.40;;
27642;SDS011;15053;48.618;10.024;2024-01-30T04:20:17;25.90;;;15.45;;
27642;SDS011;15053;48.618;10.024;2024-01-30T04:22:44;25.80;;;13.70;;
27642;SDS011;15053;48.618;10.024;2024-01-30T04:25:11;28.77;;;15.55;;
27642;SDS011;15053;48.618;10.024;2024-01-30T04:27:39;24.83;;;14.77;;
27642;SDS011;15053;48.618;10.024;2024-01-30T04:30:05;23.83;;;14.00;;
27642;SDS011;15053;48.618;10.024;2024-01-30T04:32:33;21.98;;;14.40;;
27642;SDS011;15053;48.618;10.024;2024-01-30T04:34:59;22.13;;;14.55;;
27642;SDS011;15053;48.618;10.024;2024-01-30T04:37:26;26.00;;;14.30;;
27642;SDS011;15053;48.618;10.024;2024-01-30T04:39:53;23.75;;;14.10;;
27642;SDS011;15053;48.618;10.024;2024-01-30T04:42:19;21.90;;;12.73;;
27642;SDS011;15053;48.618;10.024;2024-01-30T04:44:46;23.77;;;14.27;;
27642;SDS011;15053;48.618;10.024;2024-01-30T04:47:12;24.02;;;14.68;;
27642;SDS011;15053;48.618;10.024;2024-01-30T04:49:39;21.08;;;14.27;;
27642;SDS011;15053;48.618;10.024;2024-01-30T04:52:09;26.80;;;16.02;;
27642;SDS011;15053;48.618;10.024;2024-01-30T04:54:35;28.60;;;15.55;;
27642;SDS011;15053;48.618;10.024;2024-01-30T04:57:02;33.78;;;18.23;;
27642;SDS011;15053;48.618;10.024;2024-01-30T04:59:29;31.52;;;17.27;;
27642;SDS011;15053;48.618;10.024;2024-01-30T05:01:55;33.55;;;18.92;;
27642;SDS011;15053;48.618;10.024;2024-01-30T05:04:22;34.58;;;17.98;;
27642;SDS011;15053;48.618;10.024;2024-01-30T05:06:49;35.00;;;19.20;;
27642;SDS011;15053;48.618;10.024;2024-01-30T05:09:15;32.05;;;18.88;;
27642;SDS011;15053;48.618;10.024;2024-01-30T05:11:42;29.13;;;17.30;;
27642;SDS011;15053;48.618;10.024;2024-01-30T05:14:08;28.85;;;17.42;;
27642;SDS011;15053;48.618;10.024;2024-01-30T05:16:35;28.92;;;17.83;;
27642;SDS011;15053;48.618;10.024;2024-01-30T05:19:02;27.65;;;17.23;;
27642;SDS011;15053;48.618;10.024;2024-01-30T05:21:29;32.88;;;19.13;;
27642;SDS011;15053;48.618;10.024;2024-01-30T05:23:55;29.13;;;16.95;;
27642;SDS011;15053;48.618;10.024;2024-01-30T05:26:22;32.53;;;18.13;;
27642;SDS011;15053;48.618;10.024;2024-01-30T05:28:49;28.90;;;16.88;;
27642;SDS011;15053;48.618;10.024;2024-01-30T05:31:16;30.25;;;17.65;;
27642;SDS011;15053;48.618;10.024;2024-01-30T05:33:42;30.05;;;17.15;;
27642;SDS011;15053;48.618;10.024;2024-01-30T05:36:11;28.10;;;17.50;;
27642;SDS011;15053;48.618;10.024;2024-01-30T05:38:38;30.63;;;16.90;;
27642;SDS011;15053;48.618;10.024;2024-01-30T05:41:05;25.90;;;16.23;;
27642;SDS011;15053;48.618;10.024;2024-01-30T05:43:32;27.70;;;16.48;;
27642;SDS011;15053;48.618;10.024;2024-01-30T05:45:58;31.90;;;17.20;;
27642;SDS011;15053;48.618;10.024;2024-01-30T05:48:25;25.33;;;15.20;;
27642;SDS011;15053;48.618;10.024;2024-01-30T05:50:52;27.95;;;15.77;;
27642;SDS011;15053;48.618;10.024;2024-01-30T05:53:18;28.08;;;16.23;;
27642;SDS011;15053;48.618;10.024;2024-01-30T05:55:45;28.10;;;16.48;;
27642;SDS011;15053;48.618;10.024;2024-01-30T05:58:12;29.50;;;16.15;;
27642;SDS011;15053;48.618;10.024;2024-01-30T06:00:38;27.70;;;16.48;;
27642;SDS011;15053;48.618;10.024;2024-01-30T06:03:05;154.25;;;44.08;;
27642;SDS011;15053;48.618;10.024;2024-01-30T06:05:32;111.50;;;36.30;;
27642;SDS011;15053;48.618;10.024;2024-01-30T06:07:58;102.68;;;34.10;;
27642;SDS011;15053;48.618;10.024;2024-01-30T06:10:25;105.43;;;33.13;;
27642;SDS011;15053;48.618;10.024;2024-01-30T06:12:52;57.42;;;22.70;;
27642;SDS011;15053;48.618;10.024;2024-01-30T06:15:18;42.83;;;20.77;;
27642;SDS011;15053;48.618;10.024;2024-01-30T06:17:45;39.08;;;18.95;;
27642;SDS011;15053;48.618;10.024;2024-01-30T06:20:11;36.58;;;18.63;;
27642;SDS011;15053;48.618;10.024;2024-01-30T06:22:38;33.20;;;17.10;;
27642;SDS011;15053;48.618;10.024;2024-01-30T06:25:05;33.22;;;15.90;;
27642;SDS011;15053;48.618;10.024;2024-01-30T06:27:31;28.50;;;17.17;;
27642;SDS011;15053;48.618;10.024;2024-01-30T06:29:58;33.05;;;16.55;;
27642;SDS011;15053;48.618;10.024;2024-01-30T06:32:25;30.77;;;16.63;;
27642;SDS011;15053;48.618;10.024;2024-01-30T06:34:52;25.02;;;14.98;;
27642;SDS011;15053;48.618;10.024;2024-01-30T06:37:18;31.83;;;14.55;;
27642;SDS011;15053;48.618;10.024;2024-01-30T06:39:45;24.52;;;15.27;;
27642;SDS011;15053;48.618;10.024;2024-01-30T06:42:11;26.00;;;14.57;;
27642;SDS011;15053;48.618;10.024;2024-01-30T06:44:38;28.15;;;14.45;;
27642;SDS011;15053;48.618;10.024;2024-01-30T06:47:04;21.23;;;13.48;;
27642;SDS011;15053;48.618;10.024;2024-01-30T06:49:31;21.20;;;13.80;;
27642;SDS011;15053;48.618;10.024;2024-01-30T06:51:58;22.92;;;11.82;;
27642;SDS011;15053;48.618;10.024;2024-01-30T06:54:24;21.15;;;12.93;;
27642;SDS011;15053;48.618;10.024;2024-01-30T06:56:51;21.42;;;12.70;;
27642;SDS011;15053;48.618;10.024;2024-01-30T06:59:17;23.13;;;13.38;;
27642;SDS011;15053;48.618;10.024;2024-01-30T07:01:44;20.83;;;12.55;;
27642;SDS011;15053;48.618;10.024;2024-01-30T07:04:10;23.30;;;13.15;;
27642;SDS011;15053;48.618;10.024;2024-01-30T07:06:37;23.77;;;14.20;;
27642;SDS011;15053;48.618;10.024;2024-01-30T07:09:04;22.48;;;13.43;;
27642;SDS011;15053;48.618;10.024;2024-01-30T07:11:31;25.88;;;14.43;;
27642;SDS011;15053;48.618;10.024;2024-01-30T07:13:58;27.45;;;17.17;;
27642;SDS011;15053;48.618;10.024;2024-01-30T07:16:25;24.42;;;15.15;;
27642;SDS011;15053;48.618;10.024;2024-01-30T07:18:51;27.88;;;15.70;;
27642;SDS011;15053;48.618;10.024;2024-01-30T07:21:19;29.75;;;18.33;;
27642;SDS011;15053;48.618;10.024;2024-01-30T07:23:48;35.22;;;21.17;;
27642;SDS011;15053;48.618;10.024;2024-01-30T07:26:14;28.25;;;17.67;;
27642;SDS011;15053;48.618;10.024;2024-01-30T07:28:41;32.92;;;19.85;;
27642;SDS011;15053;48.618;10.024;2024-01-30T07:31:07;32.40;;;19.10;;
27642;SDS011;15053;48.618;10.024;2024-01-30T07:33:34;33.45;;;21.42;;
27642;SDS011;15053;48.618;10.024;2024-01-30T07:36:00;35.90;;;20.58;;
27642;SDS011;15053;48.618;10.024;2024-01-30T07:38:27;33.15;;;20.73;;
27642;SDS011;15053;48.618;10.024;2024-01-30T07:40:54;33.90;;;20.17;;
27642;SDS011;15053;48.618;10.024;2024-01-30T07:43:20;28.30;;;18.40;;
27642;SDS011;15053;48.618;10.024;2024-01-30T07:45:47;30.60;;;14.05;;
27642;SDS011;15053;48.618;10.024;2024-01-30T07:48:14;27.88;;;17.33;;
27642;SDS011;15053;48.618;10.024;2024-01-30T07:50:41;18.55;;;13.10;;
27642;SDS011;15053;48.618;10.024;2024-01-30T07:53:07;21.33;;;12.57;;
27642;SDS011;15053;48.618;10.024;2024-01-30T07:55:34;18.35;;;11.27;;
27642;SDS011;15053;48.618;10.024;2024-01-30T07:58:01;15.20;;;9.88;;
27642;SDS011;15053;48.618;10.024;2024-01-30T08:00:28;12.00;;;8.27;;
27642;SDS011;15053;48.618;10.024;2024-01-30T08:02:55;14.38;;;8.48;;
27642;SDS011;15053;48.618;10.024;2024-01-30T08:05:23;17.15;;;9.60;;
27642;SDS011;15053;48.618;10.024;2024-01-30T08:07:50;20.88;;;10.35;;
27642;SDS011;15053;48.618;10.024;2024-01-30T08:10:17;17.85;;;9.93;;
27642;SDS011;15053;48.618;10.024;2024-01-30T08:12:47;13.23;;;8.93;;
27642;SDS011;15053;48.618;10.024;2024-01-30T08:15:13;16.60;;;8.88;;
27642;SDS011;15053;48.618;10.024;2024-01-30T08:17:40;13.35;;;9.38;;
27642;SDS011;15053;48.618;10.024;2024-01-30T08:20:07;17.38;;;10.35;;
27642;SDS011;15053;48.618;10.024;2024-01-30T08:22:38;16.70;;;9.60;;
27642;SDS011;15053;48.618;10.024;2024-01-30T08:25:06;17.50;;;10.07;;
27642;SDS011;15053;48.618;10.024;2024-01-30T08:27:34;15.75;;;9.50;;
27642;SDS011;15053;48.618;10.024;2024-01-30T08:30:02;14.88;;;9.45;;
27642;SDS011;15053;48.618;10.024;2024-01-30T08:32:29;16.60;;;9.38;;
27642;SDS011;15053;48.618;10.024;2024-01-30T08:34:56;21.08;;;11.90;;
27642;SDS011;15053;48.618;10.024;2024-01-30T08:37:23;12.23;;;8.15;;
27642;SDS011;15053;48.618;10.024;2024-01-30T08:39:50;13.68;;;8.65;;
27642;SDS011;15053;48.618;10.024;2024-01-30T08:42:17;8.70;;;6.60;;
27642;SDS011;15053;48.618;10.024;2024-01-30T08:44:49;10.38;;;6.25;;
27642;SDS011;15053;48.618;10.024;2024-01-30T08:47:17;10.10;;;7.22;;
27642;SDS011;15053;48.618;10.024;2024-01-30T08:49:45;10.30;;;7.45;;
27642;SDS011;15053;48.618;10.024;2024-01-30T08:52:11;11.82;;;7.10;;
27642;SDS011;15053;48.618;10.024;2024-01-30T08:54:38;11.15;;;7.10;;
27642;SDS011;15053;48.618;10.024;2024-01-30T08:57:05;14.18;;;7.18;;
27642;SDS011;15053;48.618;10.024;2024-01-30T08:59:31;10.13;;;6.68;;
27642;SDS011;15053;48.618;10.024;2024-01-30T09:01:58;9.30;;;6.85;;
27642;SDS011;15053;48.618;10.024;2024-01-30T09:04:37;9.43;;;6.72;;
27642;SDS011;15053;48.618;10.024;2024-01-30T09:07:04;12.10;;;6.97;;
27642;SDS011;15053;48.618;10.024;2024-01-30T09:09:35;9.07;;;6.20;;
27642;SDS011;15053;48.618;10.024;2024-01-30T09:12:03;10.18;;;6.65;;
27642;SDS011;15053;48.618;10.024;2024-01-30T09:14:33;12.52;;;6.32;;
27642;SDS011;15053;48.618;10.024;2024-01-30T09:16:59;10.15;;;7.30;;
27642;SDS011;15053;48.618;10.024;2024-01-30T09:19:26;14.70;;;6.80;;
27642;SDS011;15053;48.618;10.024;2024-01-30T09:21:53;13.15;;;7.30;;
27642;SDS011;15053;48.618;10.024;2024-01-30T09:24:19;13.35;;;6.80;;
27642;SDS011;15053;48.618;10.024;2024-01-30T09:26:46;11.77;;;6.22;;
27642;SDS011;15053;48.618;10.024;2024-01-30T09:29:12;10.38;;;6.40;;
27642;SDS011;15053;48.618;10.024;2024-01-30T09:31:39;10.65;;;6.10;;
27642;SDS011;15053;48.618;10.024;2024-01-30T09:34:06;11.73;;;6.88;;
27642;SDS011;15053;48.618;10.024;2024-01-30T09:36:32;11.02;;;7.00;;
27642;SDS011;15053;48.618;10.024;2024-01-30T09:38:59;12.98;;;8.15;;
27642;SDS011;15053;48.618;10.024;2024-01-30T09:41:27;12.77;;;8.93;;
27642;SDS011;15053;48.618;10.024;2024-01-30T09:43:54;12.93;;;7.53;;
27642;SDS011;15053;48.618;10.024;2024-01-30T09:46:22;16.17;;;9.38;;
27642;SDS011;15053;48.618;10.024;2024-01-30T09:48:55;12.18;;;7.38;;
27642;SDS011;15053;48.618;10.024;2024-01-30T09:51:24;9.43;;;6.63;;
27642;SDS011;15053;48.618;10.024;2024-01-30T09:53:51;10.93;;;7.13;;
27642;SDS011;15053;48.618;10.024;2024-01-30T09:56:19;10.90;;;7.00;;
27642;SDS011;15053;48.618;10.024;2024-01-30T09:58:45;13.18;;;8.07;;
27642;SDS011;15053;48.618;10.024;2024-01-30T10:01:12;14.35;;;8.75;;
27642;SDS011;15053;48.618;10.024;2024-01-30T10:03:39;13.80;;;8.77;;
27642;SDS011;15053;48.618;10.024;2024-01-30T10:06:06;13.20;;;9.73;;
27642;SDS011;15053;48.618;10.024;2024-01-30T10:08:34;18.73;;;11.98;;
27642;SDS011;15053;48.618;10.024;2024-01-30T10:11:01;15.93;;;10.02;;
27642;SDS011;15053;48.618;10.024;2024-01-30T10:13:28;15.45;;;9.10;;
27642;SDS011;15053;48.618;10.024;2024-01-30T10:15:54;17.35;;;9.60;;
27642;SDS011;15053;48.618;10.024;2024-01-30T10:18:24;17.52;;;9.98;;
27642;SDS011;15053;48.618;10.024;2024-01-30T10:20:51;13.95;;;10.27;;
27642;SDS011;15053;48.618;10.024;2024-01-30T10:23:18;15.18;;;9.95;;
27642;SDS011;15053;48.618;10.024;2024-01-30T10:25:45;13.68;;;8.38;;
27642;SDS011;15053;48.618;10.024;2024-01-30T10:28:12;12.10;;;7.28;;
27642;SDS011;15053;48.618;10.024;2024-01-30T10:30:39;13.57;;;8.52;;
27642;SDS011;15053;48.618;10.024;2024-01-30T10:33:06;14.07;;;8.25;;
27642;SDS011;15053;48.618;10.024;2024-01-30T10:35:32;9.38;;;7.25;;
27642;SDS011;15053;48.618;10.024;2024-01-30T10:38:00;10.60;;;7.00;;
27642;SDS011;15053;48.618;10.024;2024-01-30T10:40:27;9.70;;;6.93;;
27642;SDS011;15053;48.618;10.024;2024-01-30T10:42:55;10.50;;;6.40;;
27642;SDS011;15053;48.618;10.024;2024-01-30T10:45:23;10.10;;;6.93;;
27642;SDS011;15053;48.618;10.024;2024-01-30T10:47:54;7.57;;;5.88;;
27642;SDS011;15053;48.618;10.024;2024-01-30T10:50:25;8.60;;;5.13;;
27642;SDS011;15053;48.618;10.024;2024-01-30T10:52:53;6.55;;;5.00;;
27642;SDS011;15053;48.618;10.024;2024-01-30T10:55:21;9.60;;;5.90;;
27642;SDS011;15053;48.618;10.024;2024-01-30T10:57:50;18.63;;;8.50;;
27642;SDS011;15053;48.618;10.024;2024-01-30T11:00:17;11.77;;;6.82;;
27642;SDS011;15053;48.618;10.024;2024-01-30T11:02:48;16.83;;;6.13;;
27642;SDS011;15053;48.618;10.024;2024-01-30T11:05:22;17.75;;;6.43;;
27642;SDS011;15053;48.618;10.024;2024-01-30T11:07:54;16.13;;;6.20;;
27642;SDS011;15053;48.618;10.024;2024-01-30T11:10:20;14.10;;;6.97;;
27642;SDS011;15053;48.618;10.024;2024-01-30T11:12:47;17.38;;;7.65;;
27642;SDS011;15053;48.618;10.024;2024-01-30T11:15:14;13.80;;;7.15;;
27642;SDS011;15053;48.618;10.024;2024-01-30T11:20:16;14.75;;;11.13;;
27642;SDS011;15053;48.618;10.024;2024-01-30T11:22:46;18.92;;;13.75;;
27642;SDS011;15053;48.618;10.024;2024-01-30T11:25:14;20.45;;;11.80;;
27642;SDS011;15053;48.618;10.024;2024-01-30T11:27:45;18.05;;;11.13;;
27642;SDS011;15053;48.618;10.024;2024-01-30T11:30:24;12.82;;;8.65;;
27642;SDS011;15053;48.618;10.024;2024-01-30T11:35:36;12.43;;;8.52;;
27642;SDS011;15053;48.618;10.024;2024-01-30T11:38:11;17.27;;;8.85;;
27642;SDS011;15053;48.618;10.024;2024-01-30T11:40:40;19.55;;;9.85;;
27642;SDS011;15053;48.618;10.024;2024-01-30T11:43:07;14.05;;;9.35;;
27642;SDS011;15053;48.618;10.024;2024-01-30T11:45:36;17.98;;;9.02;;
27642;SDS011;15053;48.618;10.024;2024-01-30T11:48:03;21.08;;;9.73;;
27642;SDS011;15053;48.618;10.024;2024-01-30T11:50:32;19.77;;;10.88;;
27642;SDS011;15053;48.618;10.024;2024-01-30T11:53:00;16.77;;;9.13;;
27642;SDS011;15053;48.618;10.024;2024-01-30T11:55:28;15.15;;;10.50;;
27642;SDS011;15053;48.618;10.024;2024-01-30T11:58:00;18.92;;;10.82;;
27642;SDS011;15053;48.618;10.024;2024-01-30T12:00:27;16.80;;;9.80;;
27642;SDS011;15053;48.618;10.024;2024-01-30T12:02:54;17.33;;;9.40;;
27642;SDS011;15053;48.618;10.024;2024-01-30T12:05:22;16.20;;;9.35;;
27642;SDS011;15053;48.618;10.024;2024-01-30T12:07:49;20.48;;;10.05;;
27642;SDS011;15053;48.618;10.024;2024-01-30T12:10:17;20.23;;;10.50;;
27642;SDS011;15053;48.618;10.024;2024-01-30T12:12:47;19.33;;;12.02;;
27642;SDS011;15053;48.618;10.024;2024-01-30T12:15:16;19.98;;;10.27;;
27642;SDS011;15053;48.618;10.024;2024-01-30T12:17:44;22.88;;;13.20;;
27642;SDS011;15053;48.618;10.024;2024-01-30T12:20:12;29.48;;;17.58;;
27642;SDS011;15053;48.618;10.024;2024-01-30T12:22:41;38.80;;;17.95;;
27642;SDS011;15053;48.618;10.024;2024-01-30T12:25:15;28.45;;;15.60;;
27642;SDS011;15053;48.618;10.024;2024-01-30T12:27:45;23.03;;;11.33;;
27642;SDS011;15053;48.618;10.024;2024-01-30T12:30:18;31.25;;;11.85;;
27642;SDS011;15053;48.618;10.024;2024-01-30T12:32:48;20.63;;;11.00;;
27642;SDS011;15053;48.618;10.024;2024-01-30T12:35:17;23.13;;;10.07;;
27642;SDS011;15053;48.618;10.024;2024-01-30T12:37:46;22.38;;;10.88;;
27642;SDS011;15053;48.618;10.024;2024-01-30T12:40:13;17.08;;;10.07;;
27642;SDS011;15053;48.618;10.024;2024-01-30T12:42:41;19.30;;;10.10;;
27642;SDS011;15053;48.618;10.024;2024-01-30T12:45:09;20.35;;;9.70;;
27642;SDS011;15053;48.618;10.024;2024-01-30T12:47:36;16.98;;;10.52;;
27642;SDS011;15053;48.618;10.024;2024-01-30T12:50:02;20.40;;;10.43;;
27642;SDS011;15053;48.618;10.024;2024-01-30T12:52:30;13.55;;;9.95;;
27642;SDS011;15053;48.618;10.024;2024-01-30T12:54:57;17.33;;;10.90;;
27642;SDS011;15053;48.618;10.024;2024-01-30T12:57:24;19.95;;;10.77;;
27642;SDS011;15053;48.618;10.024;2024-01-30T12:59:51;17.52;;;10.70;;
27642;SDS011;15053;48.618;10.024;2024-01-30T13:02:17;34.83;;;10.00;;
27642;SDS011;15053;48.618;10.024;2024-01-30T13:04:44;21.30;;;10.10;;
27642;SDS011;15053;48.618;10.024;2024-01-30T13:07:15;14.45;;;9.27;;
27642;SDS011;15053;48.618;10.024;2024-01-30T13:09:42;16.40;;;9.65;;
27642;SDS011;15053;48.618;10.024;2024-01-30T13:12:08;16.30;;;11.10;;
27642;SDS011;15053;48.618;10.024;2024-01-30T13:14:35;15.75;;;9.63;;
27642;SDS011;15053;48.618;10.024;2024-01-30T13:17:01;17.25;;;10.05;;
27642;SDS011;15053;48.618;10.024;2024-01-30T13:19:28;19.80;;;10.05;;
27642;SDS011;15053;48.618;10.024;2024-01-30T13:21:55;15.43;;;9.75;;
27642;SDS011;15053;48.618;10.024;2024-01-30T13:24:21;16.75;;;9.88;;
27642;SDS011;15053;48.618;10.024;2024-01-30T13:26:48;18.42;;;10.13;;
27642;SDS011;15053;48.618;10.024;2024-01-30T13:29:15;19.92;;;11.02;;
27642;SDS011;15053;48.618;10.024;2024-01-30T13:31:42;18.85;;;11.48;;
27642;SDS011;15053;48.618;10.024;2024-01-30T13:34:10;20.45;;;11.70;;
27642;SDS011;15053;48.618;10.024;2024-01-30T13:36:37;23.27;;;12.95;;
27642;SDS011;15053;48.618;10.024;2024-01-30T13:39:04;24.75;;;14.13;;
27642;SDS011;15053;48.618;10.024;2024-01-30T13:41:35;25.65;;;13.68;;
27642;SDS011;15053;48.618;10.024;2024-01-30T13:44:02;24.50;;;13.48;;
27642;SDS011;15053;48.618;10.024;2024-01-30T13:46:30;21.75;;;12.10;;
27642;SDS011;15053;48.618;10.024;2024-01-30T13:48:57;24.05;;;12.52;;
27642;SDS011;15053;48.618;10.024;2024-01-30T13:51:24;23.98;;;12.80;;
27642;SDS011;15053;48.618;10.024;2024-01-30T13:53:50;20.65;;;11.13;;
27642;SDS011;15053;48.618;10.024;2024-01-30T13:56:17;17.75;;;11.80;;
27642;SDS011;15053;48.618;10.024;2024-01-30T13:58:43;22.88;;;12.55;;
27642;SDS011;15053;48.618;10.024;2024-01-30T14:01:11;16.75;;;11.23;;
27642;SDS011;15053;48.618;10.024;2024-01-30T14:03:37;18.73;;;11.57;;
27642;SDS011;15053;48.618;10.024;2024-01-30T14:06:04;20.92;;;11.18;;
27642;SDS011;15053;48.618;10.024;2024-01-30T14:08:31;21.25;;;11.60;;
27642;SDS011;15053;48.618;10.024;2024-01-30T14:10:58;19.80;;;12.10;;
27642;SDS011;15053;48.618;10.024;2024-01-30T14:13:25;20.90;;;13.57;;
27642;SDS011;15053;48.618;10.024;2024-01-30T14:15:52;22.40;;;14.10;;
27642;SDS011;15053;48.618;10.024;2024-01-30T14:18:19;19.48;;;13.23;;